sensor_id;sensor_type;location;lat;lon;timestamp;temperature;humidity
18506;DHT22;9382;53.242;10.438;2023-08-12T00:01:42;19.60;99.90
18506;DHT22;9382;53.242;10.438;2023-08-12T00:04:09;19.60;99.90
18506;DHT22;9382;53.242;10.438;2023-08-12T00:06:40;19.60;99.90
18506;DHT22;9382;53.242;10.438;2023-08-12T00:09:07;19.60;99.90
18506;DHT22;9382;53.242;10.438;2023-08-12T00:11:35;19.60;99.90
18506;DHT22;9382;53.242;10.438;2023-08-12T00:14:02;19.60;99.90
18506;DHT22;9382;53.242;10.438;2023-08-12T00:16:29;19.70;99.90
18506;DHT22;9382;53.242;10.438;2023-08-12T00:18:56;19.70;99.90
18506;DHT22;9382;53.242;10.438;2023-08-12T00:21:24;19.70;99.90
18506;DHT22;9382;53.242;10.438;2023-08-12T00:23:51;19.70;99.90
18506;DHT22;9382;53.242;10.438;2023-08-12T00:26:18;19.70;99.90
18506;DHT22;9382;53.242;10.438;2023-08-12T00:28:48;19.70;99.90
18506;DHT22;9382;53.242;10.438;2023-08-12T00:31:15;19.70;99.90
18506;DHT22;9382;53.242;10.438;2023-08-12T00:33:42;19.60;99.90
18506;DHT22;9382;53.242;10.438;2023-08-12T00:36:09;19.60;99.90
18506;DHT22;9382;53.242;10.438;2023-08-12T00:38:35;19.60;99.90
18506;DHT22;9382;53.242;10.438;2023-08-12T00:41:03;19.60;99.90
18506;DHT22;9382;53.242;10.438;2023-08-12T00:43:30;19.60;99.90
18506;DHT22;9382;53.242;10.438;2023-08-12T00:45:58;19.60;99.90
18506;DHT22;9382;53.242;10.438;2023-08-12T00:48:25;19.50;99.90
18506;DHT22;9382;53.242;10.438;2023-08-12T00:50:52;19.50;99.90
18506;DHT22;9382;53.242;10.438;2023-08-12T00:53:20;19.50;99.90
18506;DHT22;9382;53.242;10.438;2023-08-12T00:55:47;19.50;99.90
18506;DHT22;9382;53.242;10.438;2023-08-12T00:58:14;19.50;99.90
18506;DHT22;9382;53.242;10.438;2023-08-12T01:00:40;19.50;99.90
18506;DHT22;9382;53.242;10.438;2023-08-12T01:03:09;19.50;99.90
18506;DHT22;9382;53.242;10.438;2023-08-12T01:05:37;19.40;99.90
18506;DHT22;9382;53.242;10.438;2023-08-12T01:08:04;19.40;99.90
18506;DHT22;9382;53.242;10.438;2023-08-12T01:10:34;19.40;99.90
18506;DHT22;9382;53.242;10.438;2023-08-12T01:13:09;19.30;99.90
18506;DHT22;9382;53.242;10.438;2023-08-12T01:15:40;19.30;99.90
18506;DHT22;9382;53.242;10.438;2023-08-12T01:18:10;19.30;99.90
18506;DHT22;9382;53.242;10.438;2023-08-12T01:20:38;19.20;99.90
18506;DHT22;9382;53.242;10.438;2023-08-12T01:23:13;19.20;99.90
18506;DHT22;9382;53.242;10.438;2023-08-12T01:25:40;19.10;99.90
18506;DHT22;9382;53.242;10.438;2023-08-12T01:28:07;19.10;99.90
18506;DHT22;9382;53.242;10.438;2023-08-12T01:30:38;19.10;99.90
18506;DHT22;9382;53.242;10.438;2023-08-12T01:33:11;19.00;99.90
18506;DHT22;9382;53.242;10.438;2023-08-12T01:35:43;19.00;99.90
18506;DHT22;9382;53.242;10.438;2023-08-12T01:38:15;19.00;99.90
18506;DHT22;9382;53.242;10.438;2023-08-12T01:40:44;19.00;99.90
18506;DHT22;9382;53.242;10.438;2023-08-12T01:43:12;19.00;99.90
18506;DHT22;9382;53.242;10.438;2023-08-12T01:45:39;19.00;99.90
18506;DHT22;9382;53.242;10.438;2023-08-12T01:48:09;19.00;99.90
18506;DHT22;9382;53.242;10.438;2023-08-12T01:50:36;19.00;99.90
18506;DHT22;9382;53.242;10.438;2023-08-12T01:53:03;19.00;99.90
18506;DHT22;9382;53.242;10.438;2023-08-12T01:55:31;19.00;99.90
18506;DHT22;9382;53.242;10.438;2023-08-12T01:57:58;18.90;99.90
18506;DHT22;9382;53.242;10.438;2023-08-12T02:00:25;18.90;99.90
18506;DHT22;9382;53.242;10.438;2023-08-12T02:02:51;18.90;99.90
18506;DHT22;9382;53.242;10.438;2023-08-12T02:05:18;18.90;99.90
18506;DHT22;9382;53.242;10.438;2023-08-12T02:07:45;18.90;99.90
18506;DHT22;9382;53.242;10.438;2023-08-12T02:10:12;18.90;99.90
18506;DHT22;9382;53.242;10.438;2023-08-12T02:12:41;18.90;99.90
18506;DHT22;9382;53.242;10.438;2023-08-12T02:15:08;18.90;99.90
18506;DHT22;9382;53.242;10.438;2023-08-12T02:17:36;18.80;99.90
18506;DHT22;9382;53.242;10.438;2023-08-12T02:20:03;18.80;99.90
18506;DHT22;9382;53.242;10.438;2023-08-12T02:22:30;18.70;99.90
18506;DHT22;9382;53.242;10.438;2023-08-12T02:24:57;18.70;99.90
18506;DHT22;9382;53.242;10.438;2023-08-12T02:27:24;18.70;99.90
18506;DHT22;9382;53.242;10.438;2023-08-12T02:29:52;18.70;99.90
18506;DHT22;9382;53.242;10.438;2023-08-12T02:32:19;18.70;99.90
18506;DHT22;9382;53.242;10.438;2023-08-12T02:34:46;18.60;99.90
18506;DHT22;9382;53.242;10.438;2023-08-12T02:37:12;18.60;99.90
18506;DHT22;9382;53.242;10.438;2023-08-12T02:39:39;18.50;99.90
18506;DHT22;9382;53.242;10.438;2023-08-12T02:42:06;18.50;99.90
18506;DHT22;9382;53.242;10.438;2023-08-12T02:44:32;18.50;99.90
18506;DHT22;9382;53.242;10.438;2023-08-12T02:47:00;18.50;99.90
18506;DHT22;9382;53.242;10.438;2023-08-12T02:49:27;18.50;99.90
18506;DHT22;9382;53.242;10.438;2023-08-12T02:51:55;18.50;99.90
18506;DHT22;9382;53.242;10.438;2023-08-12T02:54:22;18.50;99.90
18506;DHT22;9382;53.242;10.438;2023-08-12T02:56:49;18.40;99.90
18506;DHT22;9382;53.242;10.438;2023-08-12T02:59:16;18.40;99.90
18506;DHT22;9382;53.242;10.438;2023-08-12T03:01:43;18.40;99.90
18506;DHT22;9382;53.242;10.438;2023-08-12T03:04:11;18.40;99.90
18506;DHT22;9382;53.242;10.438;2023-08-12T03:06:38;18.40;99.90
18506;DHT22;9382;53.242;10.438;2023-08-12T03:09:05;18.40;99.90
18506;DHT22;9382;53.242;10.438;2023-08-12T03:11:32;18.40;99.90
18506;DHT22;9382;53.242;10.438;2023-08-12T03:13:58;18.40;99.90
18506;DHT22;9382;53.242;10.438;2023-08-12T03:16:25;18.40;99.90
18506;DHT22;9382;53.242;10.438;2023-08-12T03:18:52;18.40;99.90
18506;DHT22;9382;53.242;10.438;2023-08-12T03:21:20;18.40;99.90
18506;DHT22;9382;53.242;10.438;2023-08-12T03:23:47;18.40;99.90
18506;DHT22;9382;53.242;10.438;2023-08-12T03:26:14;18.40;99.90
18506;DHT22;9382;53.242;10.438;2023-08-12T03:28:41;18.40;99.90
18506;DHT22;9382;53.242;10.438;2023-08-12T03:31:08;18.30;99.90
18506;DHT22;9382;53.242;10.438;2023-08-12T03:33:34;18.40;99.90
18506;DHT22;9382;53.242;10.438;2023-08-12T03:36:01;18.40;99.90
18506;DHT22;9382;53.242;10.438;2023-08-12T03:38:29;18.40;99.90
18506;DHT22;9382;53.242;10.438;2023-08-12T03:40:56;18.40;99.90
18506;DHT22;9382;53.242;10.438;2023-08-12T03:43:23;18.30;99.90
18506;DHT22;9382;53.242;10.438;2023-08-12T03:45:50;18.30;99.90
18506;DHT22;9382;53.242;10.438;2023-08-12T03:48:16;18.30;99.90
18506;DHT22;9382;53.242;10.438;2023-08-12T03:50:43;18.40;99.90
18506;DHT22;9382;53.242;10.438;2023-08-12T03:53:12;18.40;99.90
18506;DHT22;9382;53.242;10.438;2023-08-12T03:55:41;18.40;99.90
18506;DHT22;9382;53.242;10.438;2023-08-12T03:58:08;18.40;99.90
18506;DHT22;9382;53.242;10.438;2023-08-12T04:00:34;18.30;99.90
18506;DHT22;9382;53.242;10.438;2023-08-12T04:03:01;18.40;99.90
18506;DHT22;9382;53.242;10.438;2023-08-12T04:05:28;18.30;99.90
18506;DHT22;9382;53.242;10.438;2023-08-12T04:07:55;18.40;99.90
18506;DHT22;9382;53.242;10.438;2023-08-12T04:10:21;18.40;99.90
18506;DHT22;9382;53.242;10.438;2023-08-12T04:12:50;18.40;99.90
18506;DHT22;9382;53.242;10.438;2023-08-12T04:15:16;18.40;99.90
18506;DHT22;9382;53.242;10.438;2023-08-12T04:17:43;18.40;99.90
18506;DHT22;9382;53.242;10.438;2023-08-12T04:20:10;18.40;99.90
18506;DHT22;9382;53.242;10.438;2023-08-12T04:22:37;18.40;99.90
18506;DHT22;9382;53.242;10.438;2023-08-12T04:25:05;18.50;99.90
18506;DHT22;9382;53.242;10.438;2023-08-12T04:27:32;18.40;99.90
18506;DHT22;9382;53.242;10.438;2023-08-12T04:30:00;18.40;99.90
18506;DHT22;9382;53.242;10.438;2023-08-12T04:32:27;18.40;99.90
18506;DHT22;9382;53.242;10.438;2023-08-12T04:34:53;18.40;99.90
18506;DHT22;9382;53.242;10.438;2023-08-12T04:37:20;18.40;99.90
18506;DHT22;9382;53.242;10.438;2023-08-12T04:39:49;18.40;99.90
18506;DHT22;9382;53.242;10.438;2023-08-12T04:42:16;18.40;99.90
18506;DHT22;9382;53.242;10.438;2023-08-12T04:44:42;18.40;99.90
18506;DHT22;9382;53.242;10.438;2023-08-12T04:47:10;18.40;99.90
18506;DHT22;9382;53.242;10.438;2023-08-12T04:49:37;18.40;99.90
18506;DHT22;9382;53.242;10.438;2023-08-12T04:52:04;18.50;99.90
18506;DHT22;9382;53.242;10.438;2023-08-12T04:54:32;18.50;99.90
18506;DHT22;9382;53.242;10.438;2023-08-12T04:56:59;18.50;99.90
18506;DHT22;9382;53.242;10.438;2023-08-12T04:59:25;18.60;99.90
18506;DHT22;9382;53.242;10.438;2023-08-12T05:01:52;18.70;99.90
18506;DHT22;9382;53.242;10.438;2023-08-12T05:04:20;18.70;99.90
18506;DHT22;9382;53.242;10.438;2023-08-12T05:06:47;18.80;99.90
18506;DHT22;9382;53.242;10.438;2023-08-12T05:09:14;18.90;99.90
18506;DHT22;9382;53.242;10.438;2023-08-12T05:11:41;19.00;99.90
18506;DHT22;9382;53.242;10.438;2023-08-12T05:14:07;19.00;99.90
18506;DHT22;9382;53.242;10.438;2023-08-12T05:16:34;19.10;99.90
18506;DHT22;9382;53.242;10.438;2023-08-12T05:19:01;19.10;99.90
18506;DHT22;9382;53.242;10.438;2023-08-12T05:21:29;19.10;99.90
18506;DHT22;9382;53.242;10.438;2023-08-12T05:23:56;19.10;99.90
18506;DHT22;9382;53.242;10.438;2023-08-12T05:26:23;19.10;99.90
18506;DHT22;9382;53.242;10.438;2023-08-12T05:28:50;19.10;99.90
18506;DHT22;9382;53.242;10.438;2023-08-12T05:31:16;19.00;99.90
18506;DHT22;9382;53.242;10.438;2023-08-12T05:33:43;19.00;99.90
18506;DHT22;9382;53.242;10.438;2023-08-12T05:36:10;19.00;99.90
18506;DHT22;9382;53.242;10.438;2023-08-12T05:38:38;19.00;99.90
18506;DHT22;9382;53.242;10.438;2023-08-12T05:41:05;19.00;99.90
18506;DHT22;9382;53.242;10.438;2023-08-12T05:43:33;19.00;99.90
18506;DHT22;9382;53.242;10.438;2023-08-12T05:45:59;19.00;99.90
18506;DHT22;9382;53.242;10.438;2023-08-12T05:48:26;19.10;99.90
18506;DHT22;9382;53.242;10.438;2023-08-12T05:50:53;19.10;99.90
18506;DHT22;9382;53.242;10.438;2023-08-12T05:53:20;19.20;99.90
18506;DHT22;9382;53.242;10.438;2023-08-12T05:55:49;19.20;99.90
18506;DHT22;9382;53.242;10.438;2023-08-12T05:58:15;19.20;99.90
18506;DHT22;9382;53.242;10.438;2023-08-12T06:00:42;19.30;99.90
18506;DHT22;9382;53.242;10.438;2023-08-12T06:03:10;19.40;99.90
18506;DHT22;9382;53.242;10.438;2023-08-12T06:05:37;19.50;99.90
18506;DHT22;9382;53.242;10.438;2023-08-12T06:08:04;19.50;99.90
18506;DHT22;9382;53.242;10.438;2023-08-12T06:10:32;19.70;99.90
18506;DHT22;9382;53.242;10.438;2023-08-12T06:13:00;19.80;99.90
18506;DHT22;9382;53.242;10.438;2023-08-12T06:15:27;19.90;99.90
18506;DHT22;9382;53.242;10.438;2023-08-12T06:17:54;20.00;99.90
18506;DHT22;9382;53.242;10.438;2023-08-12T06:20:21;20.10;99.90
18506;DHT22;9382;53.242;10.438;2023-08-12T06:22:47;20.10;99.90
18506;DHT22;9382;53.242;10.438;2023-08-12T06:25:14;20.20;99.90
18506;DHT22;9382;53.242;10.438;2023-08-12T06:27:41;20.30;99.90
18506;DHT22;9382;53.242;10.438;2023-08-12T06:30:11;20.40;99.90
18506;DHT22;9382;53.242;10.438;2023-08-12T06:32:38;20.50;99.90
18506;DHT22;9382;53.242;10.438;2023-08-12T06:35:05;20.60;99.90
18506;DHT22;9382;53.242;10.438;2023-08-12T06:37:32;20.50;99.90
18506;DHT22;9382;53.242;10.438;2023-08-12T06:39:59;20.50;99.90
18506;DHT22;9382;53.242;10.438;2023-08-12T06:42:26;20.40;99.90
18506;DHT22;9382;53.242;10.438;2023-08-12T06:44:54;20.50;99.90
18506;DHT22;9382;53.242;10.438;2023-08-12T06:47:23;20.50;99.90
18506;DHT22;9382;53.242;10.438;2023-08-12T06:49:51;20.60;99.90
18506;DHT22;9382;53.242;10.438;2023-08-12T06:52:18;20.60;99.90
18506;DHT22;9382;53.242;10.438;2023-08-12T06:54:44;20.70;99.90
18506;DHT22;9382;53.242;10.438;2023-08-12T06:57:11;20.70;99.90
18506;DHT22;9382;53.242;10.438;2023-08-12T06:59:38;20.80;99.90
18506;DHT22;9382;53.242;10.438;2023-08-12T07:02:05;21.00;99.90
18506;DHT22;9382;53.242;10.438;2023-08-12T07:04:34;21.10;99.90
18506;DHT22;9382;53.242;10.438;2023-08-12T07:07:00;21.20;99.90
18506;DHT22;9382;53.242;10.438;2023-08-12T07:09:27;21.30;99.90
18506;DHT22;9382;53.242;10.438;2023-08-12T07:11:54;21.30;99.90
18506;DHT22;9382;53.242;10.438;2023-08-12T07:14:20;21.50;99.90
18506;DHT22;9382;53.242;10.438;2023-08-12T07:16:47;21.50;99.90
18506;DHT22;9382;53.242;10.438;2023-08-12T07:19:14;21.50;99.90
18506;DHT22;9382;53.242;10.438;2023-08-12T07:21:42;21.60;99.90
18506;DHT22;9382;53.242;10.438;2023-08-12T07:24:09;21.50;99.90
18506;DHT22;9382;53.242;10.438;2023-08-12T07:26:36;21.50;99.90
18506;DHT22;9382;53.242;10.438;2023-08-12T07:29:02;21.60;99.90
18506;DHT22;9382;53.242;10.438;2023-08-12T07:31:29;21.70;99.90
18506;DHT22;9382;53.242;10.438;2023-08-12T07:33:56;21.80;99.90
18506;DHT22;9382;53.242;10.438;2023-08-12T07:36:23;21.80;99.90
18506;DHT22;9382;53.242;10.438;2023-08-12T07:38:51;21.80;99.90
18506;DHT22;9382;53.242;10.438;2023-08-12T07:41:18;21.80;99.90
18506;DHT22;9382;53.242;10.438;2023-08-12T07:43:44;21.90;99.90
18506;DHT22;9382;53.242;10.438;2023-08-12T07:46:11;22.00;99.90
18506;DHT22;9382;53.242;10.438;2023-08-12T07:48:38;22.00;99.90
18506;DHT22;9382;53.242;10.438;2023-08-12T07:51:05;22.10;99.90
18506;DHT22;9382;53.242;10.438;2023-08-12T07:53:31;22.20;99.90
18506;DHT22;9382;53.242;10.438;2023-08-12T07:55:59;22.20;99.90
18506;DHT22;9382;53.242;10.438;2023-08-12T07:58:26;22.30;99.90
18506;DHT22;9382;53.242;10.438;2023-08-12T08:00:53;22.40;99.90
18506;DHT22;9382;53.242;10.438;2023-08-12T08:03:20;22.30;99.90
18506;DHT22;9382;53.242;10.438;2023-08-12T08:05:47;22.30;99.90
18506;DHT22;9382;53.242;10.438;2023-08-12T08:08:14;22.30;99.90
18506;DHT22;9382;53.242;10.438;2023-08-12T08:10:41;22.30;99.90
18506;DHT22;9382;53.242;10.438;2023-08-12T08:13:09;22.40;99.90
18506;DHT22;9382;53.242;10.438;2023-08-12T08:15:36;22.30;99.90
18506;DHT22;9382;53.242;10.438;2023-08-12T08:18:03;22.20;99.90
18506;DHT22;9382;53.242;10.438;2023-08-12T08:20:30;22.20;99.90
18506;DHT22;9382;53.242;10.438;2023-08-12T08:22:56;22.30;99.90
18506;DHT22;9382;53.242;10.438;2023-08-12T08:25:23;22.30;99.90
18506;DHT22;9382;53.242;10.438;2023-08-12T08:27:50;22.30;99.90
18506;DHT22;9382;53.242;10.438;2023-08-12T08:30:18;22.40;99.90
18506;DHT22;9382;53.242;10.438;2023-08-12T08:32:45;22.50;99.90
18506;DHT22;9382;53.242;10.438;2023-08-12T08:35:13;22.60;99.90
18506;DHT22;9382;53.242;10.438;2023-08-12T08:37:40;22.60;99.90
18506;DHT22;9382;53.242;10.438;2023-08-12T08:40:08;22.60;99.90
18506;DHT22;9382;53.242;10.438;2023-08-12T08:42:35;22.60;99.90
18506;DHT22;9382;53.242;10.438;2023-08-12T08:45:07;22.60;99.90
18506;DHT22;9382;53.242;10.438;2023-08-12T08:47:38;22.70;99.90
18506;DHT22;9382;53.242;10.438;2023-08-12T08:50:07;22.80;99.90
18506;DHT22;9382;53.242;10.438;2023-08-12T08:52:34;22.90;99.90
18506;DHT22;9382;53.242;10.438;2023-08-12T08:55:03;23.10;99.90
18506;DHT22;9382;53.242;10.438;2023-08-12T08:57:31;23.30;99.90
18506;DHT22;9382;53.242;10.438;2023-08-12T08:59:58;23.50;99.90
18506;DHT22;9382;53.242;10.438;2023-08-12T09:02:24;23.60;99.90
18506;DHT22;9382;53.242;10.438;2023-08-12T09:04:53;23.60;99.90
18506;DHT22;9382;53.242;10.438;2023-08-12T09:07:21;23.70;99.90
18506;DHT22;9382;53.242;10.438;2023-08-12T09:09:49;23.80;99.90
18506;DHT22;9382;53.242;10.438;2023-08-12T09:12:18;23.90;99.90
18506;DHT22;9382;53.242;10.438;2023-08-12T09:14:46;24.00;99.90
18506;DHT22;9382;53.242;10.438;2023-08-12T09:17:12;24.00;99.90
18506;DHT22;9382;53.242;10.438;2023-08-12T09:19:39;24.10;99.90
18506;DHT22;9382;53.242;10.438;2023-08-12T09:22:08;24.00;99.90
18506;DHT22;9382;53.242;10.438;2023-08-12T09:24:35;23.90;99.90
18506;DHT22;9382;53.242;10.438;2023-08-12T09:27:03;23.90;99.90
18506;DHT22;9382;53.242;10.438;2023-08-12T09:29:30;23.90;99.90
18506;DHT22;9382;53.242;10.438;2023-08-12T09:32:06;23.90;99.90
18506;DHT22;9382;53.242;10.438;2023-08-12T09:34:33;24.00;99.90
18506;DHT22;9382;53.242;10.438;2023-08-12T09:37:01;24.10;99.90
18506;DHT22;9382;53.242;10.438;2023-08-12T09:39:29;24.10;99.90
18506;DHT22;9382;53.242;10.438;2023-08-12T09:41:56;24.20;99.90
18506;DHT22;9382;53.242;10.438;2023-08-12T09:44:25;24.10;99.90
18506;DHT22;9382;53.242;10.438;2023-08-12T09:46:56;24.10;99.90
18506;DHT22;9382;53.242;10.438;2023-08-12T09:49:23;24.30;99.90
18506;DHT22;9382;53.242;10.438;2023-08-12T09:51:51;24.30;99.90
18506;DHT22;9382;53.242;10.438;2023-08-12T09:54:18;24.40;99.90
18506;DHT22;9382;53.242;10.438;2023-08-12T09:56:48;24.30;99.90
18506;DHT22;9382;53.242;10.438;2023-08-12T09:59:19;24.30;99.90
18506;DHT22;9382;53.242;10.438;2023-08-12T10:01:48;24.30;99.90
18506;DHT22;9382;53.242;10.438;2023-08-12T10:04:17;24.30;99.90
18506;DHT22;9382;53.242;10.438;2023-08-12T10:06:45;24.50;99.90
18506;DHT22;9382;53.242;10.438;2023-08-12T10:09:15;24.50;99.90
18506;DHT22;9382;53.242;10.438;2023-08-12T10:11:42;24.60;99.90
18506;DHT22;9382;53.242;10.438;2023-08-12T10:14:11;24.80;99.90
18506;DHT22;9382;53.242;10.438;2023-08-12T10:16:38;24.80;99.90
18506;DHT22;9382;53.242;10.438;2023-08-12T10:19:06;24.80;99.90
18506;DHT22;9382;53.242;10.438;2023-08-12T10:21:34;24.80;99.90
18506;DHT22;9382;53.242;10.438;2023-08-12T10:24:03;24.80;99.90
18506;DHT22;9382;53.242;10.438;2023-08-12T10:26:30;24.70;99.90
18506;DHT22;9382;53.242;10.438;2023-08-12T10:28:57;24.60;99.90
18506;DHT22;9382;53.242;10.438;2023-08-12T10:31:26;24.60;99.90
18506;DHT22;9382;53.242;10.438;2023-08-12T10:33:54;24.60;99.90
18506;DHT22;9382;53.242;10.438;2023-08-12T10:36:21;24.80;99.90
18506;DHT22;9382;53.242;10.438;2023-08-12T10:38:48;24.80;99.90
18506;DHT22;9382;53.242;10.438;2023-08-12T10:41:16;24.90;99.90
18506;DHT22;9382;53.242;10.438;2023-08-12T10:43:53;24.80;99.90
18506;DHT22;9382;53.242;10.438;2023-08-12T10:46:30;24.60;99.90
18506;DHT22;9382;53.242;10.438;2023-08-12T10:48:59;24.40;99.90
18506;DHT22;9382;53.242;10.438;2023-08-12T10:51:43;24.20;99.90
18506;DHT22;9382;53.242;10.438;2023-08-12T10:54:14;23.90;99.90
18506;DHT22;9382;53.242;10.438;2023-08-12T10:57:06;23.70;99.90
18506;DHT22;9382;53.242;10.438;2023-08-12T10:59:52;23.50;99.90
18506;DHT22;9382;53.242;10.438;2023-08-12T11:02:26;23.40;99.90
18506;DHT22;9382;53.242;10.438;2023-08-12T11:04:55;23.40;99.90
18506;DHT22;9382;53.242;10.438;2023-08-12T11:07:29;23.50;99.90
18506;DHT22;9382;53.242;10.438;2023-08-12T11:09:59;23.80;99.90
18506;DHT22;9382;53.242;10.438;2023-08-12T11:12:30;23.90;99.90
18506;DHT22;9382;53.242;10.438;2023-08-12T11:14:58;24.00;99.90
18506;DHT22;9382;53.242;10.438;2023-08-12T11:17:32;24.10;99.90
18506;DHT22;9382;53.242;10.438;2023-08-12T11:20:00;24.20;99.90
18506;DHT22;9382;53.242;10.438;2023-08-12T11:22:27;24.20;99.90
18506;DHT22;9382;53.242;10.438;2023-08-12T11:24:54;24.20;99.90
18506;DHT22;9382;53.242;10.438;2023-08-12T11:27:22;24.00;99.90
18506;DHT22;9382;53.242;10.438;2023-08-12T11:29:49;24.00;99.90
18506;DHT22;9382;53.242;10.438;2023-08-12T11:32:16;23.90;99.90
18506;DHT22;9382;53.242;10.438;2023-08-12T11:34:45;23.90;99.90
18506;DHT22;9382;53.242;10.438;2023-08-12T11:37:11;24.00;99.90
18506;DHT22;9382;53.242;10.438;2023-08-12T11:39:38;24.10;99.90
18506;DHT22;9382;53.242;10.438;2023-08-12T11:42:05;24.20;99.90
18506;DHT22;9382;53.242;10.438;2023-08-12T11:44:32;24.20;99.90
18506;DHT22;9382;53.242;10.438;2023-08-12T11:46:59;24.30;99.90
18506;DHT22;9382;53.242;10.438;2023-08-12T11:49:25;24.40;99.90
18506;DHT22;9382;53.242;10.438;2023-08-12T11:51:53;24.40;99.90
18506;DHT22;9382;53.242;10.438;2023-08-12T11:54:20;24.50;99.90
18506;DHT22;9382;53.242;10.438;2023-08-12T11:56:47;24.50;99.90
18506;DHT22;9382;53.242;10.438;2023-08-12T11:59:14;24.50;99.90
18506;DHT22;9382;53.242;10.438;2023-08-12T12:01:41;24.40;99.90
18506;DHT22;9382;53.242;10.438;2023-08-12T12:04:14;24.40;99.90
18506;DHT22;9382;53.242;10.438;2023-08-12T12:06:41;24.30;99.90
18506;DHT22;9382;53.242;10.438;2023-08-12T12:09:10;24.20;99.90
18506;DHT22;9382;53.242;10.438;2023-08-12T12:11:40;24.20;99.90
18506;DHT22;9382;53.242;10.438;2023-08-12T12:14:08;24.20;99.90
18506;DHT22;9382;53.242;10.438;2023-08-12T12:16:39;24.40;99.90
18506;DHT22;9382;53.242;10.438;2023-08-12T12:19:09;24.60;99.90
18506;DHT22;9382;53.242;10.438;2023-08-12T12:21:40;25.00;99.90
18506;DHT22;9382;53.242;10.438;2023-08-12T12:24:07;25.20;99.90
18506;DHT22;9382;53.242;10.438;2023-08-12T12:26:36;25.40;99.90
18506;DHT22;9382;53.242;10.438;2023-08-12T12:29:03;25.50;99.90
18506;DHT22;9382;53.242;10.438;2023-08-12T12:31:32;25.60;99.90
18506;DHT22;9382;53.242;10.438;2023-08-12T12:33:59;25.70;99.90
18506;DHT22;9382;53.242;10.438;2023-08-12T12:36:26;26.10;99.90
18506;DHT22;9382;53.242;10.438;2023-08-12T12:38:52;26.40;99.90
18506;DHT22;9382;53.242;10.438;2023-08-12T12:41:19;27.00;99.90
18506;DHT22;9382;53.242;10.438;2023-08-12T12:43:47;27.40;99.90
18506;DHT22;9382;53.242;10.438;2023-08-12T12:46:15;27.70;99.90
18506;DHT22;9382;53.242;10.438;2023-08-12T12:48:42;27.80;99.90
18506;DHT22;9382;53.242;10.438;2023-08-12T12:51:09;27.90;99.90
18506;DHT22;9382;53.242;10.438;2023-08-12T12:53:35;27.90;99.90
18506;DHT22;9382;53.242;10.438;2023-08-12T12:56:03;27.70;99.90
18506;DHT22;9382;53.242;10.438;2023-08-12T12:58:31;27.50;99.90
18506;DHT22;9382;53.242;10.438;2023-08-12T13:01:00;27.20;99.90
18506;DHT22;9382;53.242;10.438;2023-08-12T13:03:27;26.70;99.90
18506;DHT22;9382;53.242;10.438;2023-08-12T13:05:54;26.70;99.90
18506;DHT22;9382;53.242;10.438;2023-08-12T13:08:20;26.60;99.90
18506;DHT22;9382;53.242;10.438;2023-08-12T13:10:47;26.30;99.90
18506;DHT22;9382;53.242;10.438;2023-08-12T13:13:15;26.00;99.90
18506;DHT22;9382;53.242;10.438;2023-08-12T13:15:42;25.80;99.90
18506;DHT22;9382;53.242;10.438;2023-08-12T13:18:10;25.60;99.90
18506;DHT22;9382;53.242;10.438;2023-08-12T13:20:37;25.50;99.90
18506;DHT22;9382;53.242;10.438;2023-08-12T13:23:04;25.50;99.90
18506;DHT22;9382;53.242;10.438;2023-08-12T13:25:32;25.30;99.90
18506;DHT22;9382;53.242;10.438;2023-08-12T13:28:00;25.20;99.90
18506;DHT22;9382;53.242;10.438;2023-08-12T13:30:27;25.10;99.90
18506;DHT22;9382;53.242;10.438;2023-08-12T13:32:54;24.90;99.90
18506;DHT22;9382;53.242;10.438;2023-08-12T13:35:23;24.80;99.90
18506;DHT22;9382;53.242;10.438;2023-08-12T13:37:50;24.70;99.90
18506;DHT22;9382;53.242;10.438;2023-08-12T13:40:17;24.70;99.90
18506;DHT22;9382;53.242;10.438;2023-08-12T13:42:44;24.70;99.90
18506;DHT22;9382;53.242;10.438;2023-08-12T13:45:13;24.60;99.90
18506;DHT22;9382;53.242;10.438;2023-08-12T13:47:40;24.50;99.90
18506;DHT22;9382;53.242;10.438;2023-08-12T13:50:07;24.50;99.90
18506;DHT22;9382;53.242;10.438;2023-08-12T13:52:35;24.50;99.90
18506;DHT22;9382;53.242;10.438;2023-08-12T13:55:03;24.60;99.90
18506;DHT22;9382;53.242;10.438;2023-08-12T13:57:30;24.80;99.90
18506;DHT22;9382;53.242;10.438;2023-08-12T13:59:57;24.90;99.90
18506;DHT22;9382;53.242;10.438;2023-08-12T14:02:24;24.90;99.90
18506;DHT22;9382;53.242;10.438;2023-08-12T14:04:50;24.80;99.90
18506;DHT22;9382;53.242;10.438;2023-08-12T14:07:17;24.70;99.90
18506;DHT22;9382;53.242;10.438;2023-08-12T14:09:47;24.60;99.90
18506;DHT22;9382;53.242;10.438;2023-08-12T14:12:14;24.40;99.90
18506;DHT22;9382;53.242;10.438;2023-08-12T14:14:41;24.20;99.90
18506;DHT22;9382;53.242;10.438;2023-08-12T14:17:08;24.20;99.90
18506;DHT22;9382;53.242;10.438;2023-08-12T14:19:39;24.20;99.90
18506;DHT22;9382;53.242;10.438;2023-08-12T14:22:05;24.10;99.90
18506;DHT22;9382;53.242;10.438;2023-08-12T14:24:32;24.00;99.90
18506;DHT22;9382;53.242;10.438;2023-08-12T14:27:00;23.90;99.90
18506;DHT22;9382;53.242;10.438;2023-08-12T14:29:28;23.90;99.90
18506;DHT22;9382;53.242;10.438;2023-08-12T14:31:55;23.90;99.90
18506;DHT22;9382;53.242;10.438;2023-08-12T14:34:21;23.80;99.90
18506;DHT22;9382;53.242;10.438;2023-08-12T14:36:48;23.70;99.90
18506;DHT22;9382;53.242;10.438;2023-08-12T14:39:15;23.50;99.90
18506;DHT22;9382;53.242;10.438;2023-08-12T14:41:42;23.20;99.90
18506;DHT22;9382;53.242;10.438;2023-08-12T14:44:10;23.00;99.90
18506;DHT22;9382;53.242;10.438;2023-08-12T14:46:36;22.70;99.90
18506;DHT22;9382;53.242;10.438;2023-08-12T14:49:03;22.60;99.90
18506;DHT22;9382;53.242;10.438;2023-08-12T14:51:30;22.50;99.90
18506;DHT22;9382;53.242;10.438;2023-08-12T14:53:57;22.40;99.90
18506;DHT22;9382;53.242;10.438;2023-08-12T14:56:24;22.30;99.90
18506;DHT22;9382;53.242;10.438;2023-08-12T14:58:50;22.40;99.90
18506;DHT22;9382;53.242;10.438;2023-08-12T15:01:18;22.50;99.90
18506;DHT22;9382;53.242;10.438;2023-08-12T15:03:46;22.80;99.90
18506;DHT22;9382;53.242;10.438;2023-08-12T15:06:13;23.30;99.90
18506;DHT22;9382;53.242;10.438;2023-08-12T15:08:40;23.60;99.90
18506;DHT22;9382;53.242;10.438;2023-08-12T15:11:07;23.80;99.90
18506;DHT22;9382;53.242;10.438;2023-08-12T15:13:34;23.80;99.90
18506;DHT22;9382;53.242;10.438;2023-08-12T15:16:00;23.90;99.90
18506;DHT22;9382;53.242;10.438;2023-08-12T15:18:28;24.40;99.90
18506;DHT22;9382;53.242;10.438;2023-08-12T15:20:55;25.00;99.90
18506;DHT22;9382;53.242;10.438;2023-08-12T15:23:22;25.20;99.90
18506;DHT22;9382;53.242;10.438;2023-08-12T15:25:49;25.30;99.90
18506;DHT22;9382;53.242;10.438;2023-08-12T15:28:15;25.30;99.90
18506;DHT22;9382;53.242;10.438;2023-08-12T15:30:42;25.30;99.90
18506;DHT22;9382;53.242;10.438;2023-08-12T15:33:09;25.10;99.90